createdAt,value
2018-09-14T00:00:45.625Z,23.75
2018-09-14T00:03:13.957Z,23.77
2018-09-14T00:05:42.869Z,23.77
2018-09-14T00:08:11.211Z,23.74
2018-09-14T00:10:38.952Z,23.75
2018-09-14T00:13:07.863Z,23.73
2018-09-14T00:15:36.193Z,23.74
2018-09-14T00:18:04.522Z,23.74
2018-09-14T00:20:32.846Z,23.74
2018-09-14T00:23:01.750Z,23.72
2018-09-14T00:25:29.497Z,23.73
2018-09-14T00:27:58.529Z,23.75
2018-09-14T00:30:26.273Z,23.75
2018-09-14T00:32:54.594Z,23.75
2018-09-14T00:35:23.500Z,23.74
2018-09-14T00:37:51.819Z,23.75
2018-09-14T00:40:20.141Z,23.75
2018-09-14T00:42:48.458Z,23.75
2018-09-14T00:45:16.782Z,23.75
2018-09-14T00:47:45.109Z,23.74
2018-09-14T00:50:13.423Z,23.74
2018-09-14T00:52:41.170Z,23.73
2018-09-14T00:55:10.071Z,23.73
2018-09-14T00:57:38.402Z,23.73
2018-09-14T01:00:06.144Z,23.72
2018-09-14T01:02:35.044Z,23.70
2018-09-14T01:05:02.778Z,23.71
2018-09-14T01:07:31.102Z,23.70
2018-09-14T01:10:00.005Z,23.71
2018-09-14T01:12:28.326Z,23.70
2018-09-14T01:14:56.644Z,23.71
2018-09-14T01:17:24.967Z,23.71
2018-09-14T01:19:53.292Z,23.71
2018-09-14T01:22:21.608Z,23.71
2018-09-14T01:24:49.349Z,23.70
2018-09-14T01:27:18.245Z,23.71
2018-09-14T01:29:46.571Z,23.69
2018-09-14T01:32:14.890Z,23.70
2018-09-14T01:34:42.630Z,23.69
2018-09-14T01:37:11.528Z,23.68
2018-09-14T01:39:39.841Z,23.69
2018-09-14T01:42:08.161Z,23.68
2018-09-14T01:44:36.480Z,23.68
2018-09-14T01:47:04.793Z,23.69
2018-09-14T01:49:33.113Z,23.67
2018-09-14T01:52:01.433Z,23.68
2018-09-14T01:54:29.752Z,23.68
2018-09-14T01:56:57.495Z,23.67
2018-09-14T01:59:26.393Z,23.67
2018-09-14T02:01:54.713Z,23.68
2018-09-14T02:04:22.453Z,23.67
2018-09-14T02:06:50.772Z,23.68
2018-09-14T02:09:19.670Z,23.66
2018-09-14T02:11:47.989Z,23.66
2018-09-14T02:14:16.309Z,23.65
2018-09-14T02:16:44.626Z,23.66
2018-09-14T02:19:12.940Z,23.65
2018-09-14T02:21:41.262Z,23.63
2018-09-14T02:24:09.588Z,23.61
2018-09-14T02:26:37.330Z,23.63
2018-09-14T02:29:06.230Z,23.60
2018-09-14T02:31:34.544Z,23.61
2018-09-14T02:34:02.861Z,23.64
2018-09-14T02:36:31.180Z,23.62
2018-09-14T02:38:59.505Z,23.63
2018-09-14T02:41:27.824Z,23.61
2018-09-14T02:43:56.139Z,23.61
2018-09-14T02:46:23.876Z,23.62
2018-09-14T02:48:52.776Z,23.60
2018-09-14T02:51:21.107Z,23.60
2018-09-14T02:53:49.418Z,23.62
2018-09-14T02:56:17.739Z,23.61
2018-09-14T02:58:45.480Z,23.59
2018-09-14T03:01:13.801Z,23.57
2018-09-14T03:03:42.709Z,23.56
2018-09-14T03:06:10.451Z,23.56
2018-09-14T03:08:39.347Z,23.57
2018-09-14T03:11:07.667Z,23.56
2018-09-14T03:13:35.987Z,23.55
2018-09-14T03:16:04.311Z,23.55
2018-09-14T03:18:32.636Z,23.55
2018-09-14T03:21:00.949Z,23.55
2018-09-14T03:23:29.269Z,23.55
2018-09-14T03:25:57.589Z,23.52
2018-09-14T03:28:25.910Z,23.52
2018-09-14T03:30:53.653Z,23.51
2018-09-14T03:33:22.548Z,23.51
2018-09-14T03:35:50.289Z,23.51
2018-09-14T03:38:19.182Z,23.51
2018-09-14T03:40:47.502Z,23.50
2018-09-14T03:43:15.829Z,23.49
2018-09-14T03:45:44.153Z,23.50
2018-09-14T03:48:11.885Z,23.49
2018-09-14T03:50:40.780Z,23.49
2018-09-14T03:53:08.522Z,23.50
2018-09-14T03:55:37.424Z,23.49
2018-09-14T03:58:05.725Z,23.49
2018-09-14T04:00:34.066Z,23.48
2018-09-14T04:03:02.389Z,23.48
2018-09-14T04:05:30.712Z,23.47
2018-09-14T04:07:59.030Z,23.48
2018-09-14T04:10:27.348Z,23.47
2018-09-14T04:12:55.089Z,23.49
2018-09-14T04:15:23.987Z,23.48
2018-09-14T04:17:51.733Z,23.48
2018-09-14T04:20:20.633Z,23.46
2018-09-14T04:22:48.480Z,23.45
2018-09-14T04:25:17.377Z,23.41
2018-09-14T04:27:45.117Z,23.42
2018-09-14T04:30:14.020Z,23.47
2018-09-14T04:32:42.330Z,23.50
2018-09-14T04:35:10.471Z,23.50
2018-09-14T04:37:38.393Z,23.51
2018-09-14T04:40:07.289Z,23.51
2018-09-14T04:42:35.605Z,23.51
2018-09-14T04:45:03.924Z,23.52
2018-09-14T04:47:31.661Z,23.52
2018-09-14T04:50:00.556Z,23.51
2018-09-14T04:52:28.895Z,23.52
2018-09-14T04:54:57.196Z,23.51
2018-09-14T04:57:25.629Z,23.51
2018-09-14T04:59:53.266Z,23.50
2018-09-14T05:02:21.590Z,23.51
2018-09-14T05:04:50.485Z,23.52
2018-09-14T05:07:18.808Z,23.52
2018-09-14T05:09:46.555Z,23.53
2018-09-14T05:12:15.452Z,23.52
2018-09-14T05:14:43.771Z,23.52
2018-09-14T05:17:12.092Z,23.52
2018-09-14T05:19:40.416Z,23.52
2018-09-14T05:22:08.738Z,23.51
2018-09-14T05:24:37.068Z,23.52
2018-09-14T05:27:05.387Z,23.52
2018-09-14T05:29:33.706Z,23.42
2018-09-14T05:32:02.022Z,23.33
2018-09-14T05:34:30.363Z,23.41
2018-09-14T05:36:58.689Z,23.44
2018-09-14T05:39:27.015Z,23.25
2018-09-14T05:41:55.376Z,23.38
2018-09-14T05:44:23.705Z,23.29
2018-09-14T05:46:51.455Z,23.24
2018-09-14T05:49:19.788Z,23.21
2018-09-14T05:51:48.699Z,23.21
2018-09-14T05:54:17.054Z,23.17
2018-09-14T05:56:44.791Z,23.16
2018-09-14T05:59:13.705Z,23.11
2018-09-14T06:01:42.031Z,23.11
2018-09-14T06:04:10.355Z,23.04
2018-09-14T06:06:38.177Z,23.07
2018-09-14T06:09:07.021Z,23.08
2018-09-14T06:11:34.771Z,23.08
2018-09-14T06:14:03.100Z,23.21
2018-09-14T06:16:31.437Z,23.25
2018-09-14T06:19:00.350Z,23.29
2018-09-14T06:21:28.116Z,23.32
2018-09-14T06:23:57.037Z,23.30
2018-09-14T06:26:25.374Z,23.29
2018-09-14T06:28:53.712Z,23.28
2018-09-14T06:31:22.040Z,23.28
2018-09-14T06:33:49.793Z,23.28
2018-09-14T06:36:18.122Z,23.26
2018-09-14T06:38:46.457Z,23.32
2018-09-14T06:41:15.387Z,23.32
2018-09-14T06:43:43.724Z,23.33
2018-09-14T06:46:11.472Z,23.34
2018-09-14T06:48:40.380Z,23.34
2018-09-14T06:51:08.141Z,23.35
2018-09-14T06:53:36.470Z,23.32
2018-09-14T06:56:04.797Z,23.34
2018-09-14T06:58:33.129Z,23.33
2018-09-14T07:01:02.056Z,23.33
2018-09-14T07:03:30.389Z,23.35
2018-09-14T07:05:58.718Z,23.32
2018-09-14T07:08:26.469Z,23.32
2018-09-14T07:10:55.381Z,23.33
2018-09-14T07:13:23.715Z,23.35
2018-09-14T07:15:52.058Z,23.36
2018-09-14T07:18:19.805Z,23.36
2018-09-14T07:20:48.133Z,23.38
2018-09-14T07:23:17.041Z,23.40
2018-09-14T07:25:45.382Z,23.41
2018-09-14T07:28:13.729Z,23.43
2018-09-14T07:30:42.054Z,23.44
2018-09-14T07:33:10.382Z,23.44
2018-09-14T07:35:38.727Z,23.45
2018-09-14T07:38:07.063Z,23.47
2018-09-14T07:40:35.401Z,23.42
2018-09-14T07:43:03.161Z,23.44
2018-09-14T07:45:32.075Z,23.44
2018-09-14T07:47:59.829Z,23.45
2018-09-14T07:50:28.745Z,23.44
2018-09-14T07:52:57.079Z,23.45
2018-09-14T07:55:25.421Z,23.45
2018-09-14T07:57:53.344Z,23.46
2018-09-14T08:00:21.506Z,23.46
2018-09-14T08:02:49.836Z,23.45
2018-09-14T08:05:18.754Z,23.46
2018-09-14T08:07:46.701Z,23.46
2018-09-14T08:10:14.841Z,23.45
2018-09-14T08:12:43.176Z,23.46
2018-09-14T08:15:11.510Z,23.48
2018-09-14T08:17:40.426Z,23.49
2018-09-14T08:20:08.781Z,23.49
2018-09-14T08:22:37.096Z,23.50
2018-09-14T08:25:05.433Z,23.51
2018-09-14T08:27:33.769Z,23.50
2018-09-14T08:30:01.668Z,23.46
2018-09-14T08:32:30.439Z,23.52
2018-09-14T08:34:58.196Z,23.52
2018-09-14T08:37:27.116Z,23.00
2018-09-14T08:39:55.443Z,23.51
2018-09-14T08:42:23.778Z,23.68
2018-09-14T08:44:52.115Z,23.71
2018-09-14T08:47:20.451Z,23.70
2018-09-14T08:49:49.309Z,23.64
2018-09-14T08:52:17.064Z,23.65
2018-09-14T08:54:45.979Z,23.83
2018-09-14T08:57:14.313Z,23.88
2018-09-14T08:59:42.645Z,23.91
2018-09-14T09:02:10.982Z,23.96
2018-09-14T09:04:38.737Z,23.97
2018-09-14T09:07:07.109Z,23.99
2018-09-14T09:09:35.413Z,23.99
2018-09-14T09:12:03.747Z,24.00
2018-09-14T09:14:32.085Z,24.03
2018-09-14T09:17:00.424Z,24.02
2018-09-14T09:19:29.379Z,24.01
2018-09-14T09:21:57.676Z,23.91
2018-09-14T09:24:25.527Z,23.85
2018-09-14T09:26:54.382Z,24.00
2018-09-14T09:29:22.735Z,24.05
2018-09-14T09:31:51.453Z,24.09
2018-09-14T09:34:19.787Z,24.13
2018-09-14T09:36:47.542Z,24.16
2018-09-14T09:39:16.456Z,24.18
2018-09-14T09:41:44.787Z,24.21
2018-09-14T09:44:13.123Z,24.27
2018-09-14T09:46:41.468Z,24.29
2018-09-14T09:49:09.808Z,24.22
2018-09-14T09:51:38.137Z,24.21
2018-09-14T09:54:06.472Z,24.19
2018-09-14T09:56:34.852Z,24.25
2018-09-14T09:59:03.147Z,24.29
2018-09-14T10:01:30.910Z,24.35
2018-09-14T10:03:59.277Z,24.24
2018-09-14T10:06:28.159Z,24.19
2018-09-14T10:08:56.527Z,24.22
2018-09-14T10:11:24.860Z,24.28
2018-09-14T10:13:52.824Z,24.31
2018-09-14T10:16:21.422Z,24.33
2018-09-14T10:18:50.335Z,24.32
2018-09-14T10:21:18.211Z,24.36
2018-09-14T10:23:46.436Z,24.34
2018-09-14T10:26:15.355Z,24.26
2018-09-14T10:28:43.910Z,24.26
2018-09-14T10:31:12.240Z,24.21
2018-09-14T10:33:40.758Z,24.21
2018-09-14T10:36:09.092Z,24.19
2018-09-14T10:38:37.416Z,24.12
2018-09-14T10:41:05.744Z,24.27
2018-09-14T10:43:34.071Z,24.26
2018-09-14T10:46:01.874Z,24.23
2018-09-14T10:48:30.779Z,24.29
2018-09-14T10:50:59.103Z,24.20
2018-09-14T10:53:27.433Z,24.34
2018-09-14T10:55:55.763Z,24.39
2018-09-14T10:58:23.517Z,24.40
2018-09-14T11:00:52.527Z,24.44
2018-09-14T11:03:20.715Z,24.43
2018-09-14T11:05:48.554Z,24.45
2018-09-14T11:08:17.467Z,24.47
2018-09-14T11:10:45.217Z,24.38
2018-09-14T11:13:13.558Z,24.33
2018-09-14T11:15:41.892Z,24.26
2018-09-14T11:18:10.219Z,24.36
2018-09-14T11:20:39.177Z,24.42
2018-09-14T11:23:07.463Z,24.38
2018-09-14T11:25:35.798Z,24.37
2018-09-14T11:28:03.989Z,24.30
2018-09-14T11:30:32.455Z,24.26
2018-09-14T11:33:00.787Z,24.26
2018-09-14T11:35:29.117Z,24.35
2018-09-14T11:37:57.514Z,24.35
2018-09-14T11:40:25.771Z,24.30
2018-09-14T11:42:53.517Z,24.37
2018-09-14T11:45:22.588Z,24.48
2018-09-14T11:47:50.181Z,24.26
2018-09-14T11:50:19.089Z,24.06
2018-09-14T11:52:48.050Z,24.06
2018-09-14T11:55:15.800Z,24.19
2018-09-14T11:57:44.691Z,24.28
2018-09-14T12:00:13.016Z,24.39
2018-09-14T12:02:41.339Z,24.48
2018-09-14T12:05:09.372Z,24.47
2018-09-14T12:07:37.421Z,24.45
2018-09-14T12:10:05.752Z,24.50
2018-09-14T12:12:34.348Z,24.33
2018-09-14T12:15:03.275Z,24.38
2018-09-14T12:17:31.012Z,24.39
2018-09-14T12:19:59.342Z,24.42
2018-09-14T12:22:28.264Z,24.41
2018-09-14T12:24:56.576Z,24.43
2018-09-14T12:27:24.897Z,24.46
2018-09-14T12:29:53.233Z,24.47
2018-09-14T12:32:21.693Z,24.49
2018-09-14T12:34:50.038Z,24.50
2018-09-14T12:37:18.336Z,24.52
2018-09-14T12:39:47.458Z,24.51
2018-09-14T12:42:15.780Z,24.52
2018-09-14T12:44:44.113Z,24.45
2018-09-14T12:47:12.491Z,24.53
2018-09-14T12:49:40.224Z,24.54
2018-09-14T12:52:08.577Z,24.59
2018-09-14T12:54:37.441Z,24.59
2018-09-14T12:57:05.767Z,24.57
2018-09-14T12:59:34.189Z,24.49
2018-09-14T13:02:01.939Z,24.56
2018-09-14T13:04:30.856Z,24.54
2018-09-14T13:06:58.605Z,24.55
2018-09-14T13:09:27.505Z,24.55
2018-09-14T13:11:55.820Z,24.58
2018-09-14T13:14:24.179Z,24.66
2018-09-14T13:16:52.465Z,24.70
2018-09-14T13:19:20.793Z,24.70
2018-09-14T13:21:48.830Z,24.72
2018-09-14T13:24:17.790Z,24.72
2018-09-14T13:26:46.053Z,24.76
2018-09-14T13:29:13.794Z,24.75
2018-09-14T13:31:42.697Z,24.83
2018-09-14T13:34:10.445Z,24.77
2018-09-14T13:36:39.347Z,24.87
2018-09-14T13:39:07.673Z,24.88
2018-09-14T13:41:36.002Z,24.89
2018-09-14T13:44:04.310Z,24.93
2018-09-14T13:46:32.630Z,24.92
2018-09-14T13:49:00.969Z,24.87
2018-09-14T13:51:28.886Z,24.91
2018-09-14T13:53:57.790Z,24.95
2018-09-14T13:56:26.109Z,24.95
2018-09-14T13:58:53.941Z,24.93
2018-09-14T14:01:22.919Z,24.96
2018-09-14T14:03:51.207Z,24.94
2018-09-14T14:06:18.948Z,24.98
2018-09-14T14:08:47.847Z,24.96
2018-09-14T14:11:17.037Z,24.99
2018-09-14T14:13:45.404Z,25.03
2018-09-14T14:16:13.731Z,25.09
2018-09-14T14:18:42.055Z,24.94
2018-09-14T14:21:10.756Z,24.97
2018-09-14T14:23:38.491Z,24.93
2018-09-14T14:26:07.389Z,24.92
2018-09-14T14:28:36.099Z,24.82
2018-09-14T14:31:03.844Z,24.86
2018-09-14T14:33:32.754Z,24.87
2018-09-14T14:36:01.085Z,24.88
2018-09-14T14:38:29.703Z,24.86
2018-09-14T14:40:58.026Z,24.91
2018-09-14T14:43:25.789Z,24.94
2018-09-14T14:45:54.284Z,24.95
2018-09-14T14:48:22.671Z,24.97
2018-09-14T14:50:50.990Z,25.01
2018-09-14T14:53:19.326Z,25.04
2018-09-14T14:55:47.683Z,25.00
2018-09-14T14:58:16.641Z,25.06
2018-09-14T15:00:44.965Z,25.09
2018-09-14T15:03:13.291Z,25.09
2018-09-14T15:05:41.617Z,25.11
2018-09-14T15:08:09.938Z,25.13
2018-09-14T15:10:37.733Z,25.14
2018-09-14T15:13:07.188Z,25.19
2018-09-14T15:15:35.507Z,25.32
2018-09-14T15:18:03.822Z,25.54
2018-09-14T15:20:32.148Z,25.76
2018-09-14T15:23:00.750Z,25.43
2018-09-14T15:25:28.782Z,25.28
2018-09-14T15:27:57.687Z,24.95
2018-09-14T15:30:26.021Z,25.06
2018-09-14T15:32:53.928Z,25.05
2018-09-14T15:35:22.248Z,25.04
2018-09-14T15:37:52.001Z,25.00
2018-09-14T15:40:19.749Z,25.11
2018-09-14T15:42:48.742Z,25.21
2018-09-14T15:45:17.065Z,25.06
2018-09-14T15:47:45.386Z,24.94
2018-09-14T15:50:13.713Z,24.89
2018-09-14T15:52:41.989Z,24.82
2018-09-14T15:55:10.892Z,24.84
2018-09-14T15:57:39.733Z,24.88
2018-09-14T16:00:08.038Z,24.71
2018-09-14T16:02:35.781Z,24.70
2018-09-14T16:05:04.162Z,24.77
2018-09-14T16:07:32.477Z,24.85
2018-09-14T16:10:01.461Z,24.79
2018-09-14T16:12:29.217Z,24.81
2018-09-14T16:14:58.131Z,24.81
2018-09-14T16:17:26.477Z,24.90
2018-09-14T16:19:54.818Z,24.84
2018-09-14T16:22:23.157Z,24.77
2018-09-14T16:24:51.485Z,24.78
2018-09-14T16:27:19.817Z,24.81
2018-09-14T16:29:48.174Z,24.68
2018-09-14T16:32:15.928Z,24.57
2018-09-14T16:34:44.849Z,24.63
2018-09-14T16:37:13.187Z,24.62
2018-09-14T16:39:41.569Z,24.80
2018-09-14T16:42:09.902Z,24.80
2018-09-14T16:44:38.232Z,24.75
2018-09-14T16:47:05.980Z,24.75
2018-09-14T16:49:35.028Z,24.81
2018-09-14T16:52:02.780Z,24.70
2018-09-14T16:54:31.689Z,24.60
2018-09-14T16:56:59.431Z,24.63
2018-09-14T16:59:28.344Z,24.57
2018-09-14T17:01:56.676Z,24.77
2018-09-14T17:04:25.310Z,24.85
2018-09-14T17:06:53.636Z,24.69
2018-09-14T17:09:21.388Z,24.64
2018-09-14T17:11:50.298Z,24.74
2018-09-14T17:14:18.627Z,24.75
2018-09-14T17:16:46.381Z,24.67
2018-09-14T17:19:14.717Z,24.01
2018-09-14T17:21:43.637Z,23.29
2018-09-14T17:24:11.642Z,23.15
2018-09-14T17:26:40.559Z,23.92
2018-09-14T17:29:08.957Z,24.55
2018-09-14T17:31:37.576Z,24.66
2018-09-14T17:34:06.229Z,24.86
2018-09-14T17:36:34.565Z,24.82
2018-09-14T17:39:02.900Z,24.77
2018-09-14T17:41:31.235Z,24.71
2018-09-14T17:44:02.098Z,24.72
2018-09-14T17:46:27.996Z,24.71
2018-09-14T17:48:56.333Z,24.87
2018-09-14T17:51:24.744Z,24.71
2018-09-14T17:53:53.083Z,24.68
2018-09-14T17:56:20.998Z,24.63
2018-09-14T17:58:49.809Z,24.58
2018-09-14T18:01:17.618Z,24.68
2018-09-14T18:03:46.648Z,24.73
2018-09-14T18:06:14.996Z,24.74
2018-09-14T18:08:42.777Z,24.74
2018-09-14T18:11:12.351Z,24.79
2018-09-14T18:13:40.686Z,24.83
2018-09-14T18:16:09.019Z,24.82
2018-09-14T18:18:36.778Z,24.84
2018-09-14T18:21:06.220Z,24.88
2018-09-14T18:23:34.554Z,24.88
2018-09-14T18:26:02.892Z,24.92
2018-09-14T18:28:31.224Z,24.94
2018-09-14T18:30:59.658Z,24.93
2018-09-14T18:33:27.407Z,24.79
2018-09-14T18:35:56.380Z,24.82
2018-09-14T18:38:30.635Z,24.89
2018-09-14T18:40:58.432Z,25.05
2018-09-14T18:43:27.351Z,25.04
2018-09-14T18:45:56.365Z,24.89
2018-09-14T18:48:24.771Z,24.99
2018-09-14T18:50:53.563Z,25.12
2018-09-14T18:53:21.902Z,25.08
2018-09-14T18:55:49.670Z,24.92
2018-09-14T18:58:18.619Z,24.87
2018-09-14T19:00:46.979Z,24.83
2018-09-14T19:03:15.304Z,24.78
2018-09-14T19:05:43.705Z,24.66
2018-09-14T19:08:12.065Z,24.61
2018-09-14T19:10:40.884Z,24.59
2018-09-14T19:13:09.223Z,24.65
2018-09-14T19:15:37.568Z,24.61
2018-09-14T19:18:05.905Z,24.60
2018-09-14T19:20:34.242Z,24.60
2018-09-14T19:23:02.575Z,24.56
2018-09-14T19:25:30.904Z,24.57
2018-09-14T19:27:59.253Z,24.55
2018-09-14T19:30:27.666Z,24.53
2018-09-14T19:32:56.136Z,24.53
2018-09-14T19:35:24.038Z,24.57
2018-09-14T19:37:52.429Z,24.53
2018-09-14T19:40:20.901Z,24.55
2018-09-14T19:42:49.832Z,24.52
2018-09-14T19:45:17.673Z,24.51
2018-09-14T19:47:47.159Z,24.52
2018-09-14T19:50:16.207Z,24.44
2018-09-14T19:52:45.197Z,24.50
2018-09-14T19:55:14.703Z,24.50
2018-09-14T19:57:43.056Z,24.48
2018-09-14T20:00:11.442Z,24.53
2018-09-14T20:02:40.189Z,24.56
2018-09-14T20:05:08.531Z,24.57
2018-09-14T20:07:36.865Z,24.54
2018-09-14T20:10:05.328Z,24.49
2018-09-14T20:12:33.669Z,24.46
2018-09-14T20:15:02.299Z,24.45
2018-09-14T20:17:30.642Z,24.44
2018-09-14T20:19:58.387Z,24.46
2018-09-14T20:22:26.737Z,24.46
2018-09-14T20:24:55.662Z,24.39
2018-09-14T20:27:23.512Z,24.42
2018-09-14T20:29:51.851Z,24.46
2018-09-14T20:32:20.192Z,24.48
2018-09-14T20:34:49.115Z,24.41
2018-09-14T20:37:17.545Z,24.47
2018-09-14T20:39:45.901Z,24.44
2018-09-14T20:42:15.039Z,24.40
2018-09-14T20:44:43.371Z,24.40
2018-09-14T20:47:11.705Z,24.38
2018-09-14T20:49:40.040Z,24.42
2018-09-14T20:52:08.366Z,24.44
2018-09-14T20:54:36.699Z,24.39
2018-09-14T20:57:05.034Z,24.36
2018-09-14T20:59:34.473Z,24.37
2018-09-14T21:02:02.821Z,24.34
2018-09-14T21:04:31.338Z,24.36
2018-09-14T21:06:59.821Z,24.35
2018-09-14T21:09:28.633Z,24.36
2018-09-14T21:11:56.977Z,24.33
2018-09-14T21:14:25.322Z,24.33
2018-09-14T21:16:53.277Z,24.32
2018-09-14T21:19:22.198Z,24.32
2018-09-14T21:21:49.957Z,24.33
2018-09-14T21:24:18.292Z,24.31
2018-09-14T21:26:47.217Z,24.29
2018-09-14T21:29:15.627Z,24.30
2018-09-14T21:31:43.882Z,24.30
2018-09-14T21:34:17.819Z,24.29
2018-09-14T21:36:46.734Z,24.28
2018-09-14T21:39:14.486Z,24.23
2018-09-14T21:41:49.951Z,24.21
2018-09-14T21:44:18.332Z,24.20
2018-09-14T21:46:46.664Z,24.25
2018-09-14T21:49:14.991Z,24.23
2018-09-14T21:51:43.375Z,24.18
2018-09-14T21:54:11.137Z,24.20
2018-09-14T21:56:39.529Z,24.25
2018-09-14T21:59:08.381Z,24.22
2018-09-14T22:01:36.714Z,24.21
2018-09-14T22:04:05.054Z,24.21
2018-09-14T22:06:33.384Z,24.16
2018-09-14T22:09:01.721Z,24.20
2018-09-14T22:11:30.055Z,24.22
2018-09-14T22:13:58.011Z,24.21
2018-09-14T22:16:26.724Z,24.17
2018-09-14T22:18:55.048Z,24.17
2018-09-14T22:21:24.166Z,24.19
2018-09-14T22:23:52.470Z,24.17
2018-09-14T22:26:20.796Z,24.18
2018-09-14T22:28:49.119Z,24.20
2018-09-14T22:31:16.865Z,24.18
2018-09-14T22:33:46.045Z,24.18
2018-09-14T22:36:14.367Z,24.16
2018-09-14T22:38:42.108Z,24.17
2018-09-14T22:41:11.010Z,24.18
2018-09-14T22:43:39.338Z,24.18
2018-09-14T22:46:07.086Z,24.17
2018-09-14T22:48:35.558Z,24.15
2018-09-14T22:51:04.324Z,24.16
2018-09-14T22:53:32.651Z,24.17
2018-09-14T22:56:00.976Z,24.15
2018-09-14T22:58:28.723Z,24.17
2018-09-14T23:00:57.630Z,24.18
2018-09-14T23:03:26.100Z,24.18
2018-09-14T23:05:54.428Z,24.17
2018-09-14T23:08:22.962Z,24.15
2018-09-14T23:10:50.712Z,24.16
2018-09-14T23:13:19.617Z,24.17
2018-09-14T23:15:47.946Z,24.18
2018-09-14T23:18:15.694Z,24.16
2018-09-14T23:20:44.022Z,24.13
2018-09-14T23:23:12.973Z,24.14
2018-09-14T23:25:41.252Z,24.13
2018-09-14T23:28:09.579Z,24.16
2018-09-14T23:30:37.809Z,24.15
2018-09-14T23:33:06.135Z,24.13
2018-09-14T23:35:35.033Z,24.16
2018-09-14T23:38:02.776Z,24.13
2018-09-14T23:40:31.675Z,24.11
2018-09-14T23:43:00.000Z,24.12
2018-09-14T23:45:27.756Z,24.15
2018-09-14T23:47:56.085Z,24.15
2018-09-14T23:50:24.995Z,24.09
2018-09-14T23:52:52.830Z,24.05
2018-09-14T23:55:21.146Z,24.05
2018-09-14T23:57:49.468Z,24.05
